createdAt,value
2022-08-21T00:01:14.699Z,29.96
2022-08-21T00:03:48.325Z,29.91
2022-08-21T00:06:24.983Z,29.89
2022-08-21T00:09:07.022Z,29.93
2022-08-21T00:11:42.784Z,29.91
2022-08-21T00:14:14.715Z,29.89
2022-08-21T00:16:52.422Z,29.86
2022-08-21T00:19:31.074Z,29.87
2022-08-21T00:22:10.363Z,29.86
2022-08-21T00:24:53.107Z,29.89
2022-08-21T00:27:34.985Z,29.90
2022-08-21T00:30:22.811Z,29.87
2022-08-21T00:32:56.271Z,29.85
2022-08-21T00:35:36.094Z,29.83
2022-08-21T00:38:12.275Z,29.83
2022-08-21T00:40:57.381Z,29.87
2022-08-21T00:43:38.707Z,29.85
2022-08-21T00:46:17.427Z,29.82
2022-08-21T00:49:01.214Z,29.82
2022-08-21T00:51:52.093Z,29.85
2022-08-21T00:54:30.862Z,29.87
2022-08-21T00:57:13.373Z,29.83
2022-08-21T00:59:49.592Z,29.87
2022-08-21T01:02:26.394Z,29.84
2022-08-21T01:05:02.650Z,29.85
2022-08-21T01:07:38.895Z,29.82
2022-08-21T01:10:23.905Z,29.83
2022-08-21T01:13:10.998Z,29.82
2022-08-21T01:15:51.163Z,29.83
2022-08-21T01:18:32.127Z,29.83
2022-08-21T01:21:40.725Z,29.82
2022-08-21T01:24:23.796Z,29.84
2022-08-21T01:26:59.023Z,29.81
2022-08-21T01:29:47.561Z,29.77
2022-08-21T01:32:20.827Z,29.82
2022-08-21T01:34:52.247Z,29.81
2022-08-21T01:37:30.008Z,29.81
2022-08-21T01:40:08.011Z,29.79
2022-08-21T01:42:44.393Z,29.81
2022-08-21T01:45:26.835Z,29.80
2022-08-21T01:48:02.207Z,29.81
2022-08-21T01:50:38.191Z,29.77
2022-08-21T01:53:16.557Z,29.77
2022-08-21T01:55:55.593Z,29.76
2022-08-21T01:58:31.640Z,29.75
2022-08-21T02:01:07.742Z,29.76
2022-08-21T02:03:43.101Z,29.79
2022-08-21T02:06:18.948Z,29.78
2022-08-21T02:08:53.183Z,29.74
2022-08-21T02:11:29.010Z,29.72
2022-08-21T02:14:00.467Z,29.73
2022-08-21T02:16:35.512Z,29.72
2022-08-21T02:19:09.785Z,29.72
2022-08-21T02:21:46.875Z,29.72
2022-08-21T02:24:22.680Z,29.72
2022-08-21T02:27:00.667Z,29.69
2022-08-21T02:29:36.348Z,29.70
2022-08-21T02:32:15.259Z,29.70
2022-08-21T02:34:54.094Z,29.68
2022-08-21T02:37:29.762Z,29.71
2022-08-21T02:40:10.465Z,29.72
2022-08-21T02:42:49.266Z,29.68
2022-08-21T02:45:28.972Z,29.66
2022-08-21T02:48:19.177Z,29.69
2022-08-21T02:51:01.735Z,29.70
2022-08-21T02:53:37.853Z,29.68
2022-08-21T02:56:17.130Z,29.67
2022-08-21T02:58:56.707Z,29.67
2022-08-21T03:01:35.041Z,29.66
2022-08-21T03:04:17.874Z,29.70
2022-08-21T03:06:53.166Z,29.70
2022-08-21T03:09:29.205Z,29.68
2022-08-21T03:12:07.883Z,29.64
2022-08-21T03:14:47.254Z,29.64
2022-08-21T03:17:29.724Z,29.63
2022-08-21T03:20:05.045Z,29.63
2022-08-21T03:22:48.490Z,29.65
2022-08-21T03:25:40.173Z,29.65
2022-08-21T03:28:20.945Z,29.63
2022-08-21T03:30:57.262Z,29.65
2022-08-21T03:33:33.891Z,29.65
2022-08-21T03:36:13.903Z,29.63
2022-08-21T03:38:49.472Z,29.62
2022-08-21T03:41:27.435Z,29.62
2022-08-21T03:44:05.986Z,29.63
2022-08-21T03:46:44.101Z,29.62
2022-08-21T03:49:22.465Z,29.63
2022-08-21T03:51:59.661Z,29.60
2022-08-21T03:54:42.064Z,29.59
2022-08-21T03:57:20.391Z,29.62
2022-08-21T03:59:53.734Z,29.59
2022-08-21T04:02:23.025Z,29.58
2022-08-21T04:04:56.842Z,29.56
2022-08-21T04:07:40.200Z,29.57
2022-08-21T04:10:19.183Z,29.56
2022-08-21T04:12:57.723Z,29.57
2022-08-21T04:15:36.524Z,29.54
2022-08-21T04:18:18.220Z,29.54
2022-08-21T04:21:04.952Z,29.56
2022-08-21T04:23:43.972Z,29.53
2022-08-21T04:26:17.453Z,29.53
2022-08-21T04:28:58.493Z,29.54
2022-08-21T04:31:38.097Z,29.52
2022-08-21T04:34:15.256Z,29.50
2022-08-21T04:36:52.855Z,29.50
2022-08-21T04:39:30.563Z,29.52
2022-08-21T04:42:10.036Z,29.54
2022-08-21T04:44:51.146Z,29.55
2022-08-21T04:47:25.086Z,29.53
2022-08-21T04:50:32.570Z,29.51
2022-08-21T04:53:16.949Z,29.56
2022-08-21T04:55:54.069Z,29.53
2022-08-21T04:58:29.291Z,29.49
2022-08-21T05:01:09.748Z,29.47
2022-08-21T05:03:45.739Z,29.50
2022-08-21T05:06:28.989Z,29.51
2022-08-21T05:09:02.895Z,29.51
2022-08-21T05:11:39.919Z,29.50
2022-08-21T05:14:18.229Z,29.48
2022-08-21T05:16:52.684Z,29.52
2022-08-21T05:19:32.026Z,29.52
2022-08-21T05:22:10.371Z,29.53
2022-08-21T05:24:48.964Z,29.50
2022-08-21T05:27:33.916Z,29.56
2022-08-21T05:30:13.093Z,29.56
2022-08-21T05:32:57.516Z,29.52
2022-08-21T05:35:42.937Z,29.59
2022-08-21T05:38:20.026Z,29.57
2022-08-21T05:40:55.848Z,29.57
2022-08-21T05:43:31.505Z,29.59
2022-08-21T05:46:08.709Z,29.62
2022-08-21T05:48:43.617Z,29.65
2022-08-21T05:51:25.073Z,29.67
2022-08-21T05:54:03.821Z,29.68
2022-08-21T05:56:37.445Z,29.71
2022-08-21T05:59:14.242Z,29.73
2022-08-21T06:01:55.562Z,29.73
2022-08-21T06:04:30.937Z,29.73
2022-08-21T06:07:09.637Z,29.75
2022-08-21T06:09:43.107Z,29.79
2022-08-21T06:12:19.366Z,29.80
2022-08-21T06:15:01.000Z,29.83
2022-08-21T06:17:34.058Z,29.82
2022-08-21T06:20:14.885Z,29.76
2022-08-21T06:22:53.174Z,29.83
2022-08-21T06:25:30.225Z,29.86
2022-08-21T06:28:13.993Z,29.85
2022-08-21T06:30:45.186Z,29.84
2022-08-21T06:33:21.046Z,29.87
2022-08-21T06:35:53.768Z,29.87
2022-08-21T06:38:35.762Z,29.87
2022-08-21T06:41:10.264Z,29.89
2022-08-21T06:43:53.034Z,29.91
2022-08-21T06:46:28.214Z,29.98
2022-08-21T06:49:06.240Z,29.98
2022-08-21T06:51:42.269Z,29.99
2022-08-21T06:54:16.282Z,30.02
2022-08-21T06:56:54.122Z,30.05
2022-08-21T06:59:30.181Z,30.03
2022-08-21T07:02:05.846Z,30.06
2022-08-21T07:04:43.598Z,30.08
2022-08-21T07:07:19.687Z,30.13
2022-08-21T07:10:02.328Z,30.16
2022-08-21T07:12:37.943Z,30.14
2022-08-21T07:15:20.138Z,30.16
2022-08-21T07:18:04.044Z,30.17
2022-08-21T07:20:39.403Z,30.17
2022-08-21T07:23:38.486Z,30.19
2022-08-21T07:26:21.516Z,30.13
2022-08-21T07:29:04.164Z,30.19
2022-08-21T07:31:36.457Z,30.20
2022-08-21T07:34:09.438Z,30.24
2022-08-21T07:36:47.155Z,30.27
2022-08-21T07:39:23.088Z,30.30
2022-08-21T07:41:55.842Z,30.34
2022-08-21T07:44:29.066Z,30.33
2022-08-21T07:47:05.773Z,30.34
2022-08-21T07:49:43.610Z,30.34
2022-08-21T07:52:19.246Z,30.37
2022-08-21T07:54:51.862Z,30.41
2022-08-21T07:57:28.489Z,30.41
2022-08-21T08:00:08.055Z,30.39
2022-08-21T08:02:55.265Z,30.43
2022-08-21T08:05:38.237Z,30.42
2022-08-21T08:08:13.928Z,30.45
2022-08-21T08:10:52.456Z,30.44
2022-08-21T08:13:34.313Z,30.48
2022-08-21T08:16:10.585Z,30.51
2022-08-21T08:18:47.409Z,30.51
2022-08-21T08:21:25.541Z,30.51
2022-08-21T08:24:18.543Z,30.54
2022-08-21T08:26:58.176Z,30.55
2022-08-21T08:29:36.418Z,30.58
2022-08-21T08:32:12.941Z,30.62
2022-08-21T08:34:45.806Z,30.60
2022-08-21T08:37:21.315Z,30.62
2022-08-21T08:40:05.448Z,30.63
2022-08-21T08:42:43.750Z,30.62
2022-08-21T08:45:22.929Z,30.64
2022-08-21T08:48:03.395Z,30.70
2022-08-21T08:51:00.021Z,30.70
2022-08-21T08:53:41.680Z,30.71
2022-08-21T08:56:15.205Z,30.71
2022-08-21T08:58:51.256Z,30.73
2022-08-21T09:01:27.138Z,30.73
2022-08-21T09:04:22.642Z,30.75
2022-08-21T09:07:06.319Z,30.78
2022-08-21T09:10:17.530Z,30.77
2022-08-21T09:13:12.668Z,30.76
2022-08-21T09:15:59.522Z,30.78
2022-08-21T09:18:38.902Z,30.79
2022-08-21T09:21:27.283Z,30.82
2022-08-21T09:24:16.202Z,30.83
2022-08-21T09:27:01.044Z,30.84
2022-08-21T09:29:41.748Z,30.85
2022-08-21T09:32:24.050Z,30.85
2022-08-21T09:35:21.234Z,30.88
2022-08-21T09:38:07.513Z,30.88
2022-08-21T09:40:52.985Z,30.83
2022-08-21T09:43:31.253Z,30.88
2022-08-21T09:46:13.663Z,30.90
2022-08-21T09:48:56.521Z,30.92
2022-08-21T09:51:35.190Z,30.94
2022-08-21T09:54:23.753Z,30.95
2022-08-21T09:57:33.643Z,30.96
2022-08-21T10:00:26.291Z,30.95
2022-08-21T10:03:25.521Z,30.95
2022-08-21T10:06:10.020Z,30.97
2022-08-21T10:08:48.866Z,30.98
2022-08-21T10:11:34.405Z,30.98
2022-08-21T10:14:25.289Z,30.98
2022-08-21T10:17:13.845Z,30.98
2022-08-21T10:19:54.442Z,30.98
2022-08-21T10:22:44.383Z,31.03
2022-08-21T10:25:31.936Z,31.02
2022-08-21T10:28:15.102Z,31.02
2022-08-21T10:31:00.534Z,31.07
2022-08-21T10:33:50.428Z,31.10
2022-08-21T10:36:32.067Z,31.11
2022-08-21T10:39:36.114Z,31.13
2022-08-21T10:42:42.074Z,31.13
2022-08-21T10:45:26.615Z,31.12
2022-08-21T10:48:09.676Z,31.12
2022-08-21T10:50:55.420Z,31.12
2022-08-21T10:53:45.701Z,31.12
2022-08-21T10:56:23.702Z,31.10
2022-08-21T10:59:31.210Z,31.11
2022-08-21T11:02:16.615Z,31.08
2022-08-21T11:05:07.840Z,31.09
2022-08-21T11:07:50.292Z,31.09
2022-08-21T11:10:58.036Z,31.12
2022-08-21T11:13:55.920Z,31.13
2022-08-21T11:17:21.419Z,31.13
2022-08-21T11:20:08.615Z,31.12
2022-08-21T11:23:22.953Z,31.13
2022-08-21T11:26:10.831Z,31.13
2022-08-21T11:28:52.054Z,31.14
2022-08-21T11:31:25.560Z,31.16
2022-08-21T11:34:30.021Z,31.15
2022-08-21T11:37:13.744Z,31.14
2022-08-21T11:40:01.524Z,31.17
2022-08-21T11:42:56.576Z,31.15
2022-08-21T11:45:38.783Z,31.13
2022-08-21T11:48:18.075Z,31.23
2022-08-21T11:50:59.852Z,31.22
2022-08-21T11:53:49.840Z,31.25
2022-08-21T11:56:37.397Z,31.21
2022-08-21T11:59:14.935Z,31.22
2022-08-21T12:01:57.401Z,31.21
2022-08-21T12:04:37.537Z,31.19
2022-08-21T12:07:41.356Z,31.16
2022-08-21T12:10:22.397Z,31.16
2022-08-21T12:12:56.483Z,31.15
2022-08-21T12:15:32.736Z,31.13
2022-08-21T12:18:12.512Z,31.14
2022-08-21T12:20:59.223Z,31.14
2022-08-21T12:24:04.003Z,31.11
2022-08-21T12:26:58.119Z,31.12
2022-08-21T12:29:46.751Z,31.11
2022-08-21T12:32:28.662Z,31.09
2022-08-21T12:35:25.412Z,31.15
2022-08-21T12:38:09.948Z,31.11
2022-08-21T12:41:03.327Z,31.13
2022-08-21T12:43:45.707Z,31.17
2022-08-21T12:46:45.383Z,31.13
2022-08-21T12:49:49.647Z,31.12
2022-08-21T12:52:40.972Z,31.12
2022-08-21T12:55:32.701Z,31.11
2022-08-21T12:58:09.231Z,31.10
2022-08-21T13:00:52.959Z,31.06
2022-08-21T13:03:27.158Z,31.08
2022-08-21T13:06:03.288Z,31.14
2022-08-21T13:08:41.761Z,31.11
2022-08-21T13:11:32.448Z,31.12
2022-08-21T13:14:14.979Z,31.09
2022-08-21T13:17:00.733Z,31.08
2022-08-21T13:19:32.925Z,31.08
2022-08-21T13:22:30.622Z,31.11
2022-08-21T13:25:18.288Z,31.10
2022-08-21T13:28:12.744Z,31.13
2022-08-21T13:30:53.147Z,31.11
2022-08-21T13:33:38.020Z,31.10
2022-08-21T13:36:47.970Z,31.06
2022-08-21T13:39:26.279Z,31.07
2022-08-21T13:42:06.115Z,31.08
2022-08-21T13:44:47.630Z,31.11
2022-08-21T13:47:24.731Z,31.12
2022-08-21T13:50:03.593Z,31.12
2022-08-21T13:52:49.691Z,31.11
2022-08-21T13:55:26.242Z,31.12
2022-08-21T13:58:09.446Z,31.13
2022-08-21T14:00:54.922Z,31.19
2022-08-21T14:03:44.019Z,31.13
2022-08-21T14:06:22.205Z,31.14
2022-08-21T14:09:30.899Z,31.18
2022-08-21T14:12:23.444Z,31.19
2022-08-21T14:15:00.329Z,31.15
2022-08-21T14:17:44.119Z,31.08
2022-08-21T14:20:42.555Z,31.09
2022-08-21T14:23:28.288Z,31.14
2022-08-21T14:26:01.201Z,31.11
2022-08-21T14:28:42.426Z,31.11
2022-08-21T14:31:22.510Z,31.09
2022-08-21T14:33:59.568Z,31.10
2022-08-21T14:36:38.163Z,31.11
2022-08-21T14:39:18.864Z,31.08
2022-08-21T14:41:50.723Z,31.13
2022-08-21T14:44:26.547Z,31.14
2022-08-21T14:47:05.167Z,31.13
2022-08-21T14:49:41.084Z,31.17
2022-08-21T14:52:19.237Z,31.25
2022-08-21T14:54:59.929Z,31.24
2022-08-21T14:57:40.156Z,31.28
2022-08-21T15:00:36.218Z,31.29
2022-08-21T15:03:17.877Z,31.33
2022-08-21T15:05:59.698Z,31.28
2022-08-21T15:08:44.308Z,31.30
2022-08-21T15:11:41.750Z,31.23
2022-08-21T15:14:27.622Z,31.26
2022-08-21T15:17:04.648Z,31.35
2022-08-21T15:19:43.944Z,31.38
2022-08-21T15:22:22.968Z,31.40
2022-08-21T15:25:03.772Z,31.38
2022-08-21T15:27:37.716Z,31.41
2022-08-21T15:30:18.537Z,31.44
2022-08-21T15:33:01.721Z,31.44
2022-08-21T15:35:35.816Z,31.44
2022-08-21T15:38:19.138Z,31.46
2022-08-21T15:40:54.135Z,31.53
2022-08-21T15:43:42.476Z,31.49
2022-08-21T15:46:25.875Z,31.48
2022-08-21T15:49:07.135Z,31.50
2022-08-21T15:51:43.629Z,31.53
2022-08-21T15:54:21.465Z,31.49
2022-08-21T15:57:00.250Z,31.56
2022-08-21T15:59:41.752Z,31.58
2022-08-21T16:02:24.444Z,31.58
2022-08-21T16:04:59.323Z,31.57
2022-08-21T16:07:35.141Z,31.58
2022-08-21T16:10:16.803Z,31.61
2022-08-21T16:13:02.077Z,31.63
2022-08-21T16:15:40.237Z,31.60
2022-08-21T16:18:21.120Z,31.57
2022-08-21T16:21:07.928Z,31.57
2022-08-21T16:23:41.809Z,31.59
2022-08-21T16:26:23.630Z,31.61
2022-08-21T16:29:04.624Z,31.63
2022-08-21T16:31:39.918Z,31.59
2022-08-21T16:34:22.432Z,31.59
2022-08-21T16:37:04.095Z,31.60
2022-08-21T16:39:42.914Z,31.64
2022-08-21T16:42:21.797Z,31.67
2022-08-21T16:44:59.584Z,31.70
2022-08-21T16:47:32.543Z,31.71
2022-08-21T16:50:10.096Z,31.71
2022-08-21T16:52:45.338Z,31.69
2022-08-21T16:55:15.874Z,31.70
2022-08-21T16:57:59.594Z,31.67
2022-08-21T17:00:30.079Z,31.69
2022-08-21T17:03:09.442Z,31.67
2022-08-21T17:05:39.527Z,31.70
2022-08-21T17:08:12.687Z,31.70
2022-08-21T17:10:51.143Z,31.70
2022-08-21T17:13:28.043Z,31.70
2022-08-21T17:16:06.606Z,31.68
2022-08-21T17:18:43.030Z,31.67
2022-08-21T17:21:25.233Z,31.68
2022-08-21T17:24:00.919Z,31.67
2022-08-21T17:26:39.841Z,31.70
2022-08-21T17:29:23.310Z,31.71
2022-08-21T17:31:59.716Z,31.65
2022-08-21T17:34:31.896Z,31.65
2022-08-21T17:37:05.850Z,31.64
2022-08-21T17:39:42.144Z,31.66
2022-08-21T17:42:21.468Z,31.67
2022-08-21T17:45:00.775Z,31.69
2022-08-21T17:47:33.865Z,31.69
2022-08-21T17:50:13.466Z,31.68
2022-08-21T17:52:50.986Z,31.61
2022-08-21T17:55:24.953Z,31.59
2022-08-21T17:57:58.808Z,31.61
2022-08-21T18:00:39.033Z,31.64
2022-08-21T18:03:19.922Z,31.66
2022-08-21T18:05:56.945Z,31.66
2022-08-21T18:08:36.523Z,31.64
2022-08-21T18:11:23.829Z,31.59
2022-08-21T18:14:06.727Z,31.55
2022-08-21T18:16:38.177Z,31.59
2022-08-21T18:19:18.175Z,31.61
2022-08-21T18:21:53.459Z,31.68
2022-08-21T18:24:31.338Z,31.70
2022-08-21T18:27:18.736Z,31.71
2022-08-21T18:29:53.633Z,31.69
2022-08-21T18:32:31.522Z,31.65
2022-08-21T18:35:06.754Z,31.64
2022-08-21T18:37:47.392Z,31.64
2022-08-21T18:40:18.271Z,31.63
2022-08-21T18:42:56.776Z,31.63
2022-08-21T18:45:37.014Z,31.63
2022-08-21T18:48:09.787Z,31.63
2022-08-21T18:50:51.956Z,31.66
2022-08-21T18:53:29.085Z,31.63
2022-08-21T18:56:05.532Z,31.58
2022-08-21T18:58:42.627Z,31.60
2022-08-21T19:01:21.959Z,31.58
2022-08-21T19:03:59.735Z,31.60
2022-08-21T19:06:46.195Z,31.54
2022-08-21T19:09:23.902Z,31.57
2022-08-21T19:11:55.130Z,31.53
2022-08-21T19:14:35.027Z,31.54
2022-08-21T19:17:15.990Z,31.53
2022-08-21T19:19:52.067Z,31.57
2022-08-21T19:22:30.076Z,31.54
2022-08-21T19:25:06.374Z,31.54
2022-08-21T19:27:44.740Z,31.57
2022-08-21T19:30:24.078Z,31.61
2022-08-21T19:33:03.155Z,31.63
2022-08-21T19:35:42.454Z,31.60
2022-08-21T19:38:15.568Z,31.58
2022-08-21T19:40:52.297Z,31.57
2022-08-21T19:43:33.335Z,31.55
2022-08-21T19:46:13.619Z,31.56
2022-08-21T19:48:46.662Z,31.51
2022-08-21T19:51:26.097Z,31.51
2022-08-21T19:54:03.379Z,31.50
2022-08-21T19:56:41.774Z,31.50
2022-08-21T19:59:18.640Z,31.52
2022-08-21T20:02:06.400Z,31.49
2022-08-21T20:04:53.276Z,31.46
2022-08-21T20:07:33.329Z,31.46
2022-08-21T20:10:10.940Z,31.44
2022-08-21T20:12:51.725Z,31.48
2022-08-21T20:15:27.380Z,31.49
2022-08-21T20:18:09.296Z,31.48
2022-08-21T20:20:44.909Z,31.51
2022-08-21T20:23:17.303Z,31.48
2022-08-21T20:26:08.029Z,31.46
2022-08-21T20:31:47.852Z,31.45
2022-08-21T20:34:23.028Z,31.44
2022-08-21T20:37:05.405Z,31.40
2022-08-21T20:39:44.697Z,31.42
2022-08-21T20:42:22.144Z,31.43
2022-08-21T20:45:08.275Z,31.44
2022-08-21T20:47:47.446Z,31.44
2022-08-21T20:50:37.017Z,31.40
2022-08-21T20:53:25.558Z,31.41
2022-08-21T20:56:14.704Z,31.42
2022-08-21T20:59:13.861Z,31.41
2022-08-21T21:01:53.113Z,31.38
2022-08-21T21:04:44.374Z,31.37
2022-08-21T21:07:33.083Z,31.34
2022-08-21T21:10:12.240Z,31.35
2022-08-21T21:12:54.568Z,31.35
2022-08-21T21:15:40.222Z,31.32
2022-08-21T21:18:29.480Z,31.33
2022-08-21T21:21:17.107Z,31.34
2022-08-21T21:24:09.736Z,31.35
2022-08-21T21:27:11.914Z,31.35
2022-08-21T21:29:49.831Z,31.36
2022-08-21T21:32:27.633Z,31.38
2022-08-21T21:35:04.267Z,31.36
2022-08-21T21:37:55.216Z,31.34
2022-08-21T21:40:40.594Z,31.34
2022-08-21T21:43:33.090Z,31.31
2022-08-21T21:46:31.445Z,31.34
2022-08-21T21:49:15.393Z,31.34
2022-08-21T21:52:00.528Z,31.32
2022-08-21T21:54:50.475Z,31.33
2022-08-21T21:57:49.642Z,31.30
2022-08-21T22:00:33.346Z,31.34
2022-08-21T22:03:09.617Z,31.29
2022-08-21T22:06:06.407Z,31.30
2022-08-21T22:09:05.269Z,31.29
2022-08-21T22:12:49.692Z,31.29
2022-08-21T22:15:28.112Z,31.27
2022-08-21T22:18:16.367Z,31.30
2022-08-21T22:21:00.279Z,31.25
2022-08-21T22:23:41.476Z,31.26
2022-08-21T22:26:22.345Z,31.28
2022-08-21T22:29:05.923Z,31.27
2022-08-21T22:31:41.706Z,31.25
2022-08-21T22:34:19.591Z,31.25
2022-08-21T22:37:02.373Z,31.25
2022-08-21T22:40:05.313Z,31.27
2022-08-21T22:42:47.010Z,31.28
2022-08-21T22:45:29.842Z,31.26
2022-08-21T22:48:22.720Z,31.24
2022-08-21T22:51:18.714Z,31.24
2022-08-21T22:53:58.054Z,31.25
2022-08-21T22:56:37.934Z,31.21
2022-08-21T22:59:31.997Z,31.21
2022-08-21T23:02:34.316Z,31.24
2022-08-21T23:05:21.146Z,31.21
2022-08-21T23:08:01.972Z,31.20
2022-08-21T23:10:51.573Z,31.22
2022-08-21T23:13:32.887Z,31.18
2022-08-21T23:16:47.487Z,31.19
2022-08-21T23:19:25.327Z,31.20
2022-08-21T23:22:09.447Z,31.19
2022-08-21T23:25:06.544Z,31.18
2022-08-21T23:27:56.204Z,31.17
2022-08-21T23:31:05.037Z,31.19
2022-08-21T23:33:56.026Z,31.17
2022-08-21T23:37:12.381Z,31.17
2022-08-21T23:40:17.055Z,31.19
2022-08-21T23:43:19.045Z,31.20
2022-08-21T23:46:11.332Z,31.18
2022-08-21T23:52:39.551Z,31.16
2022-08-21T23:55:35.022Z,31.18
2022-08-21T23:58:19.686Z,31.20
